Time;durP1;ratioP1;P1;durP2;ratioP2;P2;SDS_P1;SDS_P2;PMS_P1;PMS_P2;Temp;Humidity;BMP_temperature;BMP_pressure;BME280_temperature;BME280_humidity;BME280_pressure;Samples;Min_cycle;Max_cycle;Signal;HPM_P1;HPM_P2
2022/08/23 00:02:55;;;;;;;8.20;2.20;;;;;;;18.23;89.50;99993.57;105277;1271;62344;-79
2022/08/23 00:05:43;;;;;;;5.90;1.60;;;;;;;18.20;89.21;99993.99;105195;1271;74749;-79
2022/08/23 00:08:32;;;;;;;5.80;1.70;;;;;;;18.18;89.27;99997.77;105162;1271;69350;-78
2022/08/23 00:11:34;;;;;;;6.50;1.70;;;;;;;18.20;89.25;99996.59;105155;1271;72005;-77
2022/08/23 00:14:30;;;;;;;7.40;2.20;;;;;;;18.22;88.93;99990.92;105180;1271;59772;-77
2022/08/23 00:17:19;;;;;;;7.60;1.90;;;;;;;18.24;88.94;99993.09;105223;1271;62088;-77
2022/08/23 00:20:21;;;;;;;6.30;1.90;;;;;;;18.27;88.82;99993.95;105347;1271;73292;-79
2022/08/23 00:23:10;;;;;;;5.70;1.60;;;;;;;18.31;88.68;99992.16;105171;1271;67805;-80
2022/08/23 00:26:01;;;;;;;5.60;1.70;;;;;;;18.33;88.59;99989.70;104997;1271;74422;-80
2022/08/23 00:28:49;;;;;;;8.20;1.70;;;;;;;18.37;88.60;99991.58;105168;1271;59708;-78
2022/08/23 00:31:37;;;;;;;7.00;1.70;;;;;;;18.41;88.45;99994.46;105470;1271;60994;-79
2022/08/23 00:34:27;;;;;;;7.40;1.60;;;;;;;18.45;88.26;100002.44;105285;1271;72770;-78
2022/08/23 00:37:16;;;;;;;7.80;1.60;;;;;;;18.49;88.11;99999.80;105351;1271;70561;-79
2022/08/23 00:40:09;;;;;;;9.00;2.00;;;;;;;18.52;87.90;99996.52;105258;1271;73492;-79
2022/08/23 00:49:49;;;;;;;6.10;1.70;;;;;;;18.58;87.95;99980.48;105246;1271;73017;-79
2022/08/23 00:52:56;;;;;;;5.70;1.60;;;;;;;18.57;88.05;99978.55;105260;1271;69627;-78
2022/08/23 00:55:49;;;;;;;7.60;1.90;;;;;;;18.55;87.98;99983.61;105312;1271;73881;-78
2022/08/23 00:58:38;;;;;;;6.90;1.90;;;;;;;18.55;88.08;99992.13;104959;1274;61315;-79
2022/08/23 01:01:27;;;;;;;7.20;1.90;;;;;;;18.56;88.44;100000.05;105096;1271;61928;-78
2022/08/23 01:04:16;;;;;;;8.00;1.70;;;;;;;18.58;88.62;99990.92;105279;1271;73260;-78
2022/08/23 01:07:22;;;;;;;9.30;1.70;;;;;;;18.59;88.72;99984.31;105282;1271;68616;-79
2022/08/23 01:10:24;;;;;;;8.00;2.10;;;;;;;18.59;88.97;99975.55;105414;1270;73356;-78
2022/08/23 01:13:21;;;;;;;7.10;1.60;;;;;;;18.57;89.17;99968.96;105414;1271;59676;-77
2022/08/23 01:16:20;;;;;;;7.30;2.00;;;;;;;18.55;89.41;99973.27;105388;1271;59564;-77
2022/08/23 01:19:28;;;;;;;6.30;1.90;;;;;;;18.54;89.46;99977.32;105052;1271;74051;-78
2022/08/23 01:22:40;;;;;;;6.90;2.20;;;;;;;18.53;89.60;99986.08;105257;1271;69203;-79
2022/08/23 01:25:31;;;;;;;7.00;1.80;;;;;;;18.52;89.81;99984.89;105093;1271;74327;-78
2022/08/23 01:28:20;;;;;;;8.60;1.90;;;;;;;18.50;89.97;99981.57;105050;1271;60208;-77
2022/08/23 01:31:10;;;;;;;6.80;1.90;;;;;;;18.47;90.38;99982.80;105100;1271;61914;-79
2022/08/23 01:34:04;;;;;;;6.10;1.90;;;;;;;18.44;90.78;99979.16;105123;1271;73771;-79
2022/08/23 01:36:52;;;;;;;9.20;2.10;;;;;;;18.41;90.90;99980.19;105333;1271;68306;-78
2022/08/23 01:39:40;;;;;;;8.40;1.90;;;;;;;18.39;91.15;99981.50;105308;1271;75022;-77
2022/08/23 01:42:28;;;;;;;5.70;1.80;;;;;;;-14.51;93.19;103419.97;104997;1271;152198;-78
2022/08/23 01:45:16;;;;;;;6.40;1.90;;;;;;;18.40;91.56;99982.85;105059;1271;59778;-79
2022/08/23 01:48:05;;;;;;;7.40;2.10;;;;;;;18.34;92.09;99984.71;105235;1271;74762;-80
2022/08/23 01:50:53;;;;;;;7.20;2.10;;;;;;;18.33;92.43;99985.89;105244;1271;69100;-77
2022/08/23 01:53:42;;;;;;;8.70;2.10;;;;;;;18.32;92.54;99987.61;105083;1271;72891;-80
2022/08/23 01:56:33;;;;;;;7.90;2.00;;;;;;;18.34;92.61;99989.30;105350;1271;60085;-79
2022/08/23 01:59:30;;;;;;;7.10;1.80;;;;;;;18.33;93.03;99990.64;105331;1271;62356;-78
2022/08/23 02:02:18;;;;;;;6.70;1.80;;;;;;;18.34;93.31;99991.79;103710;1271;1737935;-78
2022/08/23 02:05:07;;;;;;;7.00;1.90;;;;;;;18.36;93.36;99986.16;104990;1271;67922;-78
2022/08/23 02:08:59;;;;;;;8.00;1.90;;;;;;;18.39;93.43;99980.77;105142;1271;73188;-79
2022/08/23 02:11:16;;;;;;;6.70;1.80;;;;;;;18.41;93.34;99973.71;105261;1271;59763;-78
2022/08/23 02:14:14;;;;;;;6.40;2.00;;;;;;;18.43;93.43;99973.41;105235;1271;59648;-78
2022/08/23 02:17:28;;;;;;;6.90;1.80;;;;;;;18.44;93.76;99970.38;105294;1271;73313;-79
2022/08/23 02:20:18;;;;;;;7.70;2.00;;;;;;;18.45;93.75;99974.59;105086;1271;68684;-79
2022/08/23 02:23:06;;;;;;;7.70;2.20;;;;;;;18.46;93.85;99977.10;104984;1271;73515;-80
2022/08/23 02:25:54;;;;;;;6.20;1.80;;;;;;;18.49;94.20;99980.52;105206;1271;59878;-77
2022/08/23 02:28:42;;;;;;;8.50;2.30;;;;;;;18.52;94.49;99981.84;105223;1271;61438;-79
2022/08/23 02:31:30;;;;;;;8.10;1.80;;;;;;;18.56;94.39;99988.27;105058;1271;72424;-79
2022/08/23 02:34:19;;;;;;;8.10;1.90;;;;;;;18.61;94.52;99989.70;105069;1271;67464;-79
2022/08/23 02:37:12;;;;;;;8.30;2.20;;;;;;;18.65;94.51;99989.23;105048;1271;71742;-78
2022/08/23 02:40:00;;;;;;;9.10;2.00;;;;;;;18.69;94.50;99989.46;105046;1271;60452;-79
2022/08/23 02:42:48;;;;;;;6.80;2.20;;;;;;;18.72;94.58;99992.85;104984;1271;61192;-79
2022/08/23 02:45:38;;;;;;;7.20;2.20;;;;;;;18.76;95.01;99994.75;105159;1271;73673;-78
2022/08/23 02:48:26;;;;;;;7.40;2.10;;;;;;;18.80;94.87;99996.02;105197;1271;68009;-78
2022/08/23 02:51:20;;;;;;;8.00;2.30;;;;;;;18.82;94.86;99995.67;105132;1271;74506;-78
2022/08/23 02:54:09;;;;;;;6.90;2.10;;;;;;;18.86;94.84;99996.32;105056;1271;59696;-77
2022/08/23 02:56:57;;;;;;;8.00;2.10;;;;;;;18.89;94.76;99997.97;105170;1271;62068;-79
2022/08/23 02:59:44;;;;;;;8.00;2.30;;;;;;;18.93;94.62;100003.48;105138;1271;72379;-79
2022/08/23 03:02:32;;;;;;;7.00;2.00;;;;;;;18.97;94.81;100000.59;105110;1271;67659;-76
2022/08/23 03:05:21;;;;;;;9.70;2.20;;;;;;;18.99;94.81;100001.94;105348;1271;72617;-77
2022/08/23 03:08:12;;;;;;;10.30;2.40;;;;;;;19.00;94.91;99999.06;105117;1271;61293;-79
2022/08/23 03:11:19;;;;;;;7.70;2.40;;;;;;;19.02;94.83;99994.67;105313;1271;60470;-78
2022/08/23 03:14:10;;;;;;;9.80;2.30;;;;;;;19.02;95.06;99994.01;104871;1274;74725;-78
2022/08/23 03:16:58;;;;;;;8.70;2.40;;;;;;;19.04;95.30;99991.88;105031;1271;66866;-78
2022/08/23 03:19:47;;;;;;;9.00;2.50;;;;;;;19.04;95.88;99995.06;105275;1271;73348;-77
2022/08/23 03:22:36;;;;;;;9.90;2.20;;;;;;;19.05;95.84;100000.86;105306;1271;59757;-79
2022/08/23 03:25:26;;;;;;;7.80;2.20;;;;;;;19.07;95.83;100005.67;104929;1271;61073;-77
2022/08/23 03:28:24;;;;;;;9.70;2.30;;;;;;;19.10;96.09;100011.09;105231;1271;74000;-79
2022/08/23 03:31:14;;;;;;;6.60;2.40;;;;;;;19.10;96.55;100008.76;105140;1271;67892;-77
2022/08/23 03:34:28;;;;;;;9.30;2.40;;;;;;;19.10;96.82;100004.98;105497;1271;73518;-79
2022/08/23 03:37:18;;;;;;;9.30;2.30;;;;;;;19.10;96.94;100007.15;105538;1271;61247;-79
2022/08/23 03:40:07;;;;;;;10.30;2.60;;;;;;;19.12;97.15;100007.27;105093;1271;60522;-78
2022/08/23 03:42:55;;;;;;;7.90;2.30;;;;;;;19.13;97.41;100002.68;105166;1271;74853;-78
2022/08/23 03:45:44;;;;;;;8.00;2.30;;;;;;;19.13;97.53;99994.08;105352;1271;69318;-79
2022/08/23 03:48:33;;;;;;;8.10;2.30;;;;;;;19.13;97.76;99995.34;104968;1271;74393;-79
2022/08/23 03:51:23;;;;;;;8.00;2.10;;;;;;;19.11;97.89;100003.23;104909;1271;59714;-78
2022/08/23 03:54:11;;;;;;;9.90;2.40;;;;;;;19.12;97.85;100010.34;104995;1271;60041;-79
2022/08/23 03:57:05;;;;;;;8.10;2.30;;;;;;;19.13;97.75;100014.52;105066;1270;74787;-80
2022/08/23 03:59:53;;;;;;;10.30;2.40;;;;;;;19.15;97.78;100009.61;105259;1271;68458;-79
2022/08/23 04:02:43;;;;;;;7.50;2.40;;;;;;;19.17;97.82;100007.61;105124;1271;72610;-78
2022/08/23 04:05:31;;;;;;;10.80;2.60;;;;;;;19.18;98.19;100007.46;105176;1271;61335;-78
2022/08/23 04:08:24;;;;;;;10.20;2.90;;;;;;;19.20;97.82;100006.38;105162;1271;61041;-79
2022/08/23 04:11:22;;;;;;;7.20;2.30;;;;;;;19.20;97.75;100010.09;104995;1271;72033;-80
2022/08/23 04:14:16;;;;;;;8.70;2.80;;;;;;;19.21;98.38;100015.08;104843;1274;69660;-79
2022/08/23 04:17:05;;;;;;;8.60;2.30;;;;;;;19.18;99.04;100014.11;105217;1272;71400;-78
2022/08/23 04:19:54;;;;;;;8.80;2.90;;;;;;;19.17;99.12;100011.05;105325;1271;59662;-79
2022/08/23 04:22:42;;;;;;;9.60;2.80;;;;;;;19.18;99.07;100008.95;105244;1271;61056;-80
2022/08/23 04:25:33;;;;;;;8.40;2.90;;;;;;;19.19;99.18;100011.38;105428;1271;72244;-79
2022/08/23 04:28:24;;;;;;;10.90;2.90;;;;;;;19.18;99.02;100011.75;105565;1274;68401;-79
2022/08/23 04:31:13;;;;;;;8.50;3.00;;;;;;;19.17;99.71;100013.48;105045;1271;74479;-80
2022/08/23 04:34:02;;;;;;;8.80;2.90;;;;;;;19.17;99.58;100013.34;105234;1271;60942;-78
2022/08/23 04:36:51;;;;;;;12.00;3.30;;;;;;;19.17;99.69;100013.51;105127;1271;60629;-79
2022/08/23 04:42:55;;;;;;;7.90;2.80;;;;;;;19.22;99.68;100014.27;105147;1271;68576;-80
2022/08/23 04:45:43;;;;;;;9.20;3.40;;;;;;;19.22;99.54;100015.08;104967;1272;73182;-79
2022/08/23 04:48:41;;;;;;;8.80;3.20;;;;;;;19.25;99.72;100016.44;105299;1271;59674;-80
2022/08/23 04:51:29;;;;;;;10.30;3.10;;;;;;;19.27;99.69;100019.72;105103;1271;60886;-77
2022/08/23 04:54:17;;;;;;;8.60;3.20;;;;;;;19.31;99.59;100017.55;105215;1271;74760;-78
2022/08/23 04:57:28;;;;;;;9.90;3.30;;;;;;;19.32;99.39;100026.52;105196;1271;69767;-80
2022/08/23 05:00:17;;;;;;;10.40;3.40;;;;;;;19.37;99.68;100024.22;105296;1271;71555;-79
2022/08/23 05:03:12;;;;;;;10.00;3.70;;;;;;;19.43;99.38;100018.69;105154;1271;59687;-77
2022/08/23 05:06:01;;;;;;;12.00;3.90;;;;;;;19.46;98.98;100022.43;105147;1271;61581;-78
2022/08/23 05:08:53;;;;;;;13.90;3.80;;;;;;;19.44;98.73;100020.10;105215;1271;74757;-78
2022/08/23 05:11:42;;;;;;;10.40;3.50;;;;;;;19.47;98.96;100017.25;105007;1271;69450;-77
2022/08/23 05:14:30;;;;;;;11.30;4.20;;;;;;;19.52;98.85;100016.88;105130;1271;72718;-72
2022/08/23 05:17:18;;;;;;;12.10;3.50;;;;;;;19.52;98.76;100019.54;105098;1271;60213;-70
2022/08/23 05:20:09;;;;;;;12.50;3.50;;;;;;;19.53;98.80;100018.60;105224;1271;60355;-72
2022/08/23 05:23:00;;;;;;;10.10;3.00;;;;;;;19.60;98.68;100019.73;105033;1271;72114;-72
2022/08/23 05:25:55;;;;;;;9.20;3.80;;;;;;;19.66;98.50;100012.58;104893;1271;68399;-73
2022/08/23 05:28:48;;;;;;;11.40;3.60;;;;;;;19.71;98.31;100009.59;105168;1271;74516;-72
2022/08/23 05:31:38;;;;;;;10.30;3.40;;;;;;;19.75;98.34;100009.70;104981;1271;59945;-74
2022/08/23 05:34:26;;;;;;;12.40;4.10;;;;;;;19.78;98.31;100006.14;104976;1271;61908;-70
2022/08/23 05:37:17;;;;;;;10.20;3.20;;;;;;;19.77;98.18;100005.04;105175;1271;73811;-72
2022/08/23 05:40:06;;;;;;;9.30;3.50;;;;;;;19.78;98.31;100009.92;105195;1271;69612;-72
2022/08/23 05:42:58;;;;;;;11.00;3.70;;;;;;;19.82;98.26;100010.35;104956;1271;72978;-73
2022/08/23 05:45:46;;;;;;;11.60;4.00;;;;;;;19.83;98.20;100015.17;105045;1271;59752;-73
2022/08/23 05:48:37;;;;;;;13.10;4.20;;;;;;;19.84;98.31;100019.85;105371;1271;59841;-73
2022/08/23 05:51:31;;;;;;;11.10;3.50;;;;;;;19.87;98.46;100022.02;105313;1271;73735;-71
2022/08/23 05:54:19;;;;;;;9.50;3.20;;;;;;;19.90;98.17;100018.02;105081;1271;67792;-72
2022/08/23 05:57:19;;;;;;;10.40;3.40;;;;;;;19.93;98.14;100016.77;104990;1271;71584;-72
2022/08/23 06:00:14;;;;;;;12.80;3.60;;;;;;;19.94;98.16;100018.91;105064;1271;61391;-72
2022/08/23 06:03:15;;;;;;;12.80;3.50;;;;;;;19.93;98.11;100017.77;105080;1272;62021;-72
2022/08/23 06:06:07;;;;;;;12.70;5.00;;;;;;;19.96;98.16;100023.67;105113;1271;74595;-74
2022/08/23 06:08:55;;;;;;;12.50;5.00;;;;;;;19.97;98.25;100022.65;105235;1271;66774;-70
2022/08/23 06:11:47;;;;;;;13.10;3.90;;;;;;;19.98;98.30;100014.44;104957;1271;73285;-72
2022/08/23 06:14:35;;;;;;;11.30;3.90;;;;;;;20.01;98.53;100018.70;105011;1271;59656;-74
2022/08/23 06:17:24;;;;;;;9.80;3.40;;;;;;;20.04;98.45;100022.22;104957;1271;62120;-73
2022/08/23 06:20:14;;;;;;;11.90;3.30;;;;;;;20.09;98.23;100021.42;104954;1272;71962;-72
2022/08/23 06:23:17;;;;;;;11.20;3.20;;;;;;;20.18;98.09;100024.36;105028;1271;69544;-71
2022/08/23 06:26:22;;;;;;;10.70;3.00;;;;;;;20.29;97.73;100025.70;105047;1271;74434;-75
2022/08/23 06:29:16;;;;;;;11.40;3.40;;;;;;;20.34;97.46;100025.86;105192;1271;59768;-73
2022/08/23 06:32:05;;;;;;;9.80;3.10;;;;;;;20.39;97.18;100029.20;105220;1271;59711;-72
2022/08/23 06:34:55;;;;;;;8.20;2.80;;;;;;;20.44;96.83;100031.71;105000;1271;73059;-71
2022/08/23 06:38:13;;;;;;;8.90;2.70;;;;;;;20.49;96.21;100028.91;105100;1271;66783;-73
2022/08/23 06:41:31;;;;;;;6.80;2.00;;;;;;;20.53;95.79;100037.83;105229;1271;72594;-73
2022/08/23 06:44:28;;;;;;;8.10;2.50;;;;;;;20.55;95.22;100035.70;104964;1271;60481;-72
2022/08/23 06:47:37;;;;;;;8.00;2.50;;;;;;;20.58;94.92;100039.86;105151;1271;61431;-73
2022/08/23 06:50:25;;;;;;;9.40;2.60;;;;;;;20.61;94.40;100040.95;105005;1271;73580;-73
2022/08/23 06:53:38;;;;;;;8.00;2.80;;;;;;;20.65;94.23;100042.51;105121;1271;68577;-73
2022/08/23 06:56:42;;;;;;;8.40;3.40;;;;;;;20.66;94.10;100036.04;105479;1271;72612;-73
2022/08/23 06:59:40;;;;;;;8.40;2.80;;;;;;;20.66;94.02;100041.08;105112;1271;60119;-73
2022/08/23 07:02:50;;;;;;;10.90;4.70;;;;;;;20.70;93.98;100042.60;105237;1272;59774;-73
2022/08/23 07:06:06;;;;;;;9.70;3.60;;;;;;;20.75;93.62;100044.35;105110;1271;73653;-73
2022/08/23 07:09:00;;;;;;;9.40;3.50;;;;;;;20.80;93.41;100046.66;105127;1271;68283;-74
2022/08/23 07:11:48;;;;;;;9.00;3.90;;;;;;;20.86;93.26;100050.45;104992;1271;71825;-73
2022/08/23 07:14:37;;;;;;;8.30;3.10;;;;;;;20.88;92.96;100055.59;105010;1271;59753;-73
2022/08/23 07:17:25;;;;;;;9.70;3.40;;;;;;;20.86;93.11;100057.67;104918;1271;60442;-73
2022/08/23 07:20:13;;;;;;;10.60;3.70;;;;;;;20.82;93.31;100058.20;104958;1271;73330;-74
2022/08/23 07:23:04;;;;;;;10.00;3.50;;;;;;;20.74;93.82;100057.67;105195;1271;68412;-73
2022/08/23 07:25:52;;;;;;;8.80;3.50;;;;;;;20.74;93.96;100061.13;105402;1271;73732;-75
2022/08/23 07:28:44;;;;;;;10.50;3.70;;;;;;;20.79;94.17;100061.81;104987;1271;61237;-74
2022/08/23 07:31:37;;;;;;;8.70;3.20;;;;;;;20.88;93.87;100061.75;105356;1271;60518;-73
2022/08/23 07:34:26;;;;;;;10.70;3.50;;;;;;;21.09;93.50;100061.45;105027;1272;73196;-72
2022/08/23 07:37:15;;;;;;;12.40;3.50;;;;;;;21.29;92.61;100060.90;105105;1271;68523;-74
2022/08/23 07:40:07;;;;;;;9.00;3.40;;;;;;;21.40;91.42;100061.29;105485;1271;72651;-74
2022/08/23 07:42:56;;;;;;;9.00;2.80;;;;;;;21.47;91.05;100062.45;104931;1271;61230;-73
2022/08/23 07:45:47;;;;;;;10.40;3.40;;;;;;;21.50;90.21;100067.52;105174;1271;61043;-74
2022/08/23 07:48:35;;;;;;;11.20;4.40;;;;;;;21.51;89.87;100063.23;105212;1271;73271;-72
2022/08/23 07:51:49;;;;;;;11.80;3.60;;;;;;;21.53;89.96;100067.73;105311;1271;68445;-74
2022/08/23 07:54:37;;;;;;;9.90;3.70;;;;;;;21.58;89.94;100072.75;105109;1271;72900;-73
2022/08/23 07:57:47;;;;;;;8.50;3.60;;;;;;;21.69;89.82;100077.88;105053;1271;59666;-74
2022/08/23 08:00:47;;;;;;;10.90;3.80;;;;;;;21.78;89.62;100076.73;105218;1274;62306;-72
2022/08/23 08:03:57;;;;;;;9.20;3.80;;;;;;;21.82;88.97;100079.48;105159;1274;74571;-74
2022/08/23 08:06:50;;;;;;;12.50;6.40;;;;;;;21.85;89.08;100075.96;105100;1271;68973;-75
2022/08/23 08:10:00;;;;;;;11.60;4.90;;;;;;;21.89;88.47;100084.59;105121;1271;72997;-72
2022/08/23 08:12:49;;;;;;;14.60;4.30;;;;;;;21.86;88.42;100080.18;105087;1271;61374;-74
2022/08/23 08:15:40;;;;;;;11.70;4.10;;;;;;;21.94;88.02;100082.14;105105;1271;60693;-71
2022/08/23 08:18:32;;;;;;;11.70;3.90;;;;;;;22.02;87.96;100085.05;104945;1271;73256;-73
2022/08/23 08:21:47;;;;;;;11.10;3.70;;;;;;;22.13;86.99;100082.57;105144;1271;69587;-76
2022/08/23 08:24:55;;;;;;;14.10;4.20;;;;;;;22.21;86.32;100087.05;105093;1271;74386;-73
2022/08/23 08:27:43;;;;;;;10.10;4.10;;;;;;;22.26;86.17;100089.60;105115;1271;61508;-72
2022/08/23 08:30:32;;;;;;;16.30;7.90;;;;;;;22.54;85.88;100088.14;105028;1271;61048;-73
2022/08/23 08:33:20;;;;;;;11.00;4.30;;;;;;;22.77;84.41;100083.13;105019;1271;74662;-73
2022/08/23 08:36:41;;;;;;;13.30;6.10;;;;;;;22.82;82.47;100084.87;104976;1271;69727;-73
2022/08/23 08:39:33;;;;;;;12.80;5.40;;;;;;;22.73;81.99;100090.77;105142;1271;74446;-74
2022/08/23 08:42:57;;;;;;;11.70;4.80;;;;;;;22.65;82.14;100096.65;105253;1271;59970;-72
2022/08/23 08:46:12;;;;;;;13.80;4.30;;;;;;;22.54;82.65;100097.36;105153;1271;59573;-73
2022/08/23 08:49:03;;;;;;;11.30;4.40;;;;;;;22.51;83.07;100096.67;105280;1271;73699;-73
2022/08/23 08:52:27;;;;;;;13.30;4.90;;;;;;;22.45;82.72;100095.00;105113;1271;70028;-73
2022/08/23 08:55:38;;;;;;;12.70;4.90;;;;;;;22.39;83.13;100096.67;105164;1271;72884;-73
2022/08/23 08:58:55;;;;;;;14.10;5.20;;;;;;;22.37;83.54;100089.25;105277;1271;59710;-72
2022/08/23 09:01:43;;;;;;;13.00;5.00;;;;;;;22.38;83.73;100082.22;105247;1274;60536;-72
2022/08/23 09:04:36;;;;;;;16.50;5.20;;;;;;;22.41;83.67;100075.35;105157;1271;74699;-72
2022/08/23 09:07:50;;;;;;;16.30;7.20;;;;;;;22.51;83.14;100076.91;105073;1271;69561;-73
2022/08/23 09:11:04;;;;;;;12.80;4.90;;;;;;;22.71;82.79;100075.48;105279;1271;73859;-76
2022/08/23 09:14:42;;;;;;;13.20;5.30;;;;;;;22.85;82.76;100070.48;105264;1271;59758;-74
2022/08/23 09:17:49;;;;;;;15.50;5.80;;;;;;;22.92;81.68;100064.31;105291;1271;62302;-73
2022/08/23 09:20:40;;;;;;;16.40;5.40;;;;;;;22.97;81.71;100064.99;105229;1271;71834;-73
2022/08/23 09:23:40;;;;;;;15.40;5.60;;;;;;;23.06;81.58;100069.42;105099;1271;69589;-75
2022/08/23 09:26:30;;;;;;;16.80;6.50;;;;;;;23.30;80.49;100064.46;105156;1271;73395;-72
2022/08/23 09:29:29;;;;;;;15.70;6.40;;;;;;;23.48;79.47;100070.34;105053;1271;59707;-72
2022/08/23 09:32:31;;;;;;;14.60;6.00;;;;;;;23.52;79.42;100072.91;105182;1271;60146;-74
2022/08/23 09:35:24;;;;;;;15.50;6.50;;;;;;;23.73;78.47;100074.16;105104;1274;74517;-75
2022/08/23 09:38:19;;;;;;;13.00;5.70;;;;;;;24.08;76.71;100076.48;105523;1271;68561;-74
2022/08/23 09:41:27;;;;;;;19.10;10.30;;;;;;;24.27;76.19;100080.82;105036;1271;73016;-72
2022/08/23 09:44:41;;;;;;;16.20;6.10;;;;;;;24.26;74.66;100087.02;105055;1271;59751;-73
2022/08/23 09:47:40;;;;;;;13.60;5.50;;;;;;;24.31;74.22;100083.80;105514;1271;60940;-71
2022/08/23 09:51:02;;;;;;;13.10;5.40;;;;;;;24.24;74.25;100083.91;105018;1271;73299;-73
2022/08/23 09:54:17;;;;;;;12.10;5.20;;;;;;;24.37;73.36;100083.63;105019;1271;66678;-73
2022/08/23 09:57:10;;;;;;;14.30;5.00;;;;;;;24.59;71.06;100086.80;104999;1271;73666;-72
2022/08/23 10:00:29;;;;;;;15.30;5.50;;;;;;;25.07;70.14;100088.14;104959;1271;59732;-74
2022/08/23 10:03:28;;;;;;;13.50;5.20;;;;;;;25.46;68.74;100084.95;105116;1271;62048;-72
2022/08/23 10:06:30;;;;;;;11.00;4.60;;;;;;;25.87;66.88;100079.95;104878;1271;72778;-73
2022/08/23 10:09:31;;;;;;;12.10;4.60;;;;;;;25.84;66.25;100081.02;105033;1271;66834;-73
2022/08/23 10:12:22;;;;;;;12.50;4.40;;;;;;;25.76;65.83;100081.95;105302;1271;71629;-70
2022/08/23 10:15:10;;;;;;;17.40;4.80;;;;;;;25.97;65.60;100084.75;104934;1271;59609;-73
2022/08/23 10:18:10;;;;;;;12.10;4.20;;;;;;;27.26;62.72;100079.61;104980;1271;60355;-75
2022/08/23 10:21:24;;;;;;;10.40;4.00;;;;;;;28.20;58.29;100080.37;105052;1271;73853;-74
2022/08/23 10:24:37;;;;;;;9.30;3.60;;;;;;;28.95;55.83;100078.14;105285;1271;68382;-74
2022/08/23 10:31:04;;;;;;;9.20;3.60;;;;;;;29.58;53.15;100077.85;105319;1271;59564;-75
2022/08/23 10:33:58;;;;;;;11.60;3.90;;;;;;;29.85;52.40;100077.60;105233;1271;60842;-74
2022/08/23 10:37:30;;;;;;;12.10;3.80;;;;;;;29.94;51.40;100075.02;104997;1271;74950;-74
2022/08/23 10:40:33;;;;;;;13.20;3.90;;;;;;;30.32;49.94;100079.70;104945;1272;68540;-76
2022/08/23 10:43:41;;;;;;;16.20;4.60;;;;;;;30.32;50.76;100072.52;105156;1271;72216;-76
2022/08/23 10:46:38;;;;;;;12.40;4.20;;;;;;;30.29;50.46;100076.64;105257;1271;59672;-76
2022/08/23 10:49:27;;;;;;;15.60;5.30;;;;;;;30.13;50.41;100078.34;105095;1271;59695;-74
2022/08/23 10:52:30;;;;;;;12.60;4.60;;;;;;;29.88;50.35;100087.30;105111;1271;71746;-75
2022/08/23 10:55:38;;;;;;;14.00;4.30;;;;;;;29.49;51.00;100082.11;105365;1271;69574;-74
2022/08/23 10:58:45;;;;;;;14.00;4.60;;;;;;;29.07;52.07;100083.33;105374;1271;74392;-74
2022/08/23 11:02:22;;;;;;;15.40;4.50;;;;;;;28.80;53.00;100078.63;105185;1271;59688;-73
2022/08/23 11:05:28;;;;;;;12.40;4.10;;;;;;;29.08;53.37;100075.22;105054;1271;61029;-73
2022/08/23 11:08:37;;;;;;;13.30;4.10;;;;;;;29.18;53.20;100072.54;105144;1271;73780;-74
2022/08/23 11:11:42;;;;;;;14.40;4.30;;;;;;;29.76;52.09;100075.05;105305;1271;69269;-74
2022/08/23 11:14:29;;;;;;;14.00;4.20;;;;;;;30.93;49.47;100063.77;104878;1274;74389;-75
2022/08/23 11:17:32;;;;;;;13.00;4.20;;;;;;;31.36;47.35;100062.17;105148;1271;59732;-72
2022/08/23 11:20:48;;;;;;;13.00;4.20;;;;;;;32.21;45.27;100055.09;105324;1271;61835;-72
2022/08/23 11:23:57;;;;;;;13.90;4.60;;;;;;;32.34;44.88;100055.97;105198;1271;74828;-73
2022/08/23 11:26:46;;;;;;;15.10;4.30;;;;;;;32.01;44.67;100053.77;105228;1271;68409;-73
2022/08/23 11:29:37;;;;;;;13.00;3.90;;;;;;;31.58;45.19;100059.33;104997;1271;72850;-72
2022/08/23 11:32:46;;;;;;;15.20;4.40;;;;;;;31.14;46.74;100057.30;105112;1271;59673;-74
2022/08/23 11:35:51;;;;;;;14.10;4.50;;;;;;;30.57;47.55;100056.34;105165;1271;59630;-73
2022/08/23 11:38:46;;;;;;;14.20;4.30;;;;;;;30.00;49.20;100062.82;105169;1271;73387;-72
2022/08/23 11:41:54;;;;;;;12.90;3.60;;;;;;;29.43;50.56;100065.88;105085;1271;66997;-74
2022/08/23 11:44:47;;;;;;;11.50;3.70;;;;;;;28.86;52.36;100062.12;105154;1271;72790;-71
2022/08/23 11:47:43;;;;;;;16.90;4.90;;;;;;;28.42;53.62;100059.19;104914;1271;59847;-71
2022/08/23 11:51:06;;;;;;;16.00;4.70;;;;;;;28.00;55.06;100058.48;105003;1271;60482;-73
2022/08/23 11:54:44;;;;;;;22.70;10.30;;;;;;;27.53;56.04;100062.11;105167;1271;73494;-77
2022/08/23 11:58:29;;;;;;;18.60;8.50;;;;;;;27.04;57.98;100067.41;105240;1271;69388;-72
2022/08/23 12:01:30;;;;;;;20.00;7.30;;;;;;;26.58;59.26;100065.18;105031;1271;74133;-72
2022/08/23 12:04:37;;;;;;;15.40;5.80;;;;;;;26.38;60.50;100060.55;104935;1271;59682;-73
2022/08/23 12:08:00;;;;;;;12.90;5.90;;;;;;;26.28;60.80;100059.42;105122;1274;60906;-73
2022/08/23 12:10:49;;;;;;;20.70;7.20;;;;;;;26.11;60.94;100060.23;105359;1271;74738;-72
2022/08/23 12:14:00;;;;;;;15.50;6.00;;;;;;;26.05;61.76;100061.77;105072;1271;68394;-73
2022/08/23 12:16:48;;;;;;;14.00;5.30;;;;;;;26.01;62.36;100062.64;105425;1271;73411;-72
2022/08/23 12:19:52;;;;;;;15.80;5.40;;;;;;;26.02;62.54;100065.29;105099;1271;59691;-73
2022/08/23 12:23:11;;;;;;;19.20;5.70;;;;;;;25.91;62.45;100068.44;105397;1271;61754;-75
2022/08/23 12:26:21;;;;;;;16.10;5.90;;;;;;;25.78;63.16;100062.36;105388;1271;73823;-74
2022/08/23 12:29:53;;;;;;;18.40;5.90;;;;;;;25.85;63.64;100063.98;105109;1271;67428;-73
2022/08/23 12:32:43;;;;;;;13.70;5.50;;;;;;;26.01;62.86;100065.27;105134;1271;74139;-72
2022/08/23 12:36:07;;;;;;;16.00;5.60;;;;;;;26.22;62.55;100062.28;105043;1271;59665;-74
2022/08/23 12:39:19;;;;;;;16.10;4.90;;;;;;;26.55;61.92;100063.11;105308;1271;62036;-73
2022/08/23 12:42:19;;;;;;;14.80;6.10;;;;;;;26.88;60.53;100059.14;105357;1271;70999;-75
2022/08/23 12:45:22;;;;;;;16.60;5.40;;;;;;;27.11;59.90;100062.87;105129;1271;69722;-75
2022/08/23 12:48:15;;;;;;;16.20;5.00;;;;;;;27.05;59.31;100056.25;105073;1271;73404;-76
2022/08/23 12:51:11;;;;;;;17.20;4.80;;;;;;;26.94;59.70;100051.73;105158;1271;59666;-72
2022/08/23 12:54:15;;;;;;;15.90;5.10;;;;;;;26.89;60.19;100052.55;105361;1271;60878;-75
2022/08/23 12:57:10;;;;;;;17.30;5.10;;;;;;;26.92;60.10;100052.48;105268;1271;74956;-73
2022/08/23 13:00:13;;;;;;;16.10;5.10;;;;;;;26.98;59.34;100052.95;105203;1271;68619;-72
2022/08/23 13:03:18;;;;;;;16.80;5.40;;;;;;;27.08;59.10;100050.70;105518;1271;73030;-73
2022/08/23 13:06:12;;;;;;;17.80;5.20;;;;;;;27.26;58.93;100052.64;104987;1271;59701;-74
2022/08/23 13:09:18;;;;;;;14.10;4.90;;;;;;;27.21;58.93;100047.29;105210;1271;61976;-75
2022/08/23 13:12:08;;;;;;;16.60;5.50;;;;;;;27.16;59.11;100051.00;105140;1271;74794;-74
2022/08/23 13:15:00;;;;;;;14.80;4.80;;;;;;;27.15;59.01;100050.02;105414;1271;67851;-75
2022/08/23 13:18:00;;;;;;;15.70;5.60;;;;;;;27.13;59.10;100054.78;105173;1271;74902;-73
2022/08/23 13:21:21;;;;;;;15.50;4.80;;;;;;;27.07;58.89;100051.45;104976;1271;59735;-75
2022/08/23 13:24:34;;;;;;;14.60;4.90;;;;;;;26.97;59.29;100052.45;105427;1271;60650;-72
2022/08/23 13:27:33;;;;;;;17.20;5.50;;;;;;;26.94;59.98;100057.11;105200;1271;73773;-74
2022/08/23 13:30:35;;;;;;;14.50;4.60;;;;;;;27.03;60.07;100058.43;105148;1271;69382;-76
2022/08/23 13:33:26;;;;;;;15.50;5.00;;;;;;;27.10;60.17;100057.48;105121;1271;71566;-73
2022/08/23 13:36:20;;;;;;;13.40;5.10;;;;;;;27.19;59.90;100060.42;105275;1270;59765;-74
2022/08/23 13:39:08;;;;;;;15.90;4.60;;;;;;;27.16;60.11;100060.30;105188;1270;60538;-73
2022/08/23 13:41:58;;;;;;;15.30;4.90;;;;;;;27.08;60.09;100053.97;105141;1271;72444;-75
2022/08/23 13:44:47;;;;;;;21.40;6.20;;;;;;;26.91;59.74;100048.23;105207;1271;67954;-75
2022/08/23 13:47:47;;;;;;;17.80;5.10;;;;;;;26.77;60.49;100046.61;105320;1271;74381;-73